Pineville, MO

2:36 PM CST on December 17, 2014 (GMT -0600)
NW Arkansas Airport | Change Station
CLOSE
Current Station
Airport
Location: NW Arkansas Airport,
Elevation: 1286 ft
Nearby Weather Stations
Active Advisory: Winter Weather Advisory Active Notice: Public Information Statement

Elev 1286 ft 36.28 °N, 94.31 °W | Updated 43 minutes ago

Rain
Rain
35 °F
Feels Like 35 °F
N
0
Wind Variable Wind from North

Today
High -- | Low -- °F
--% Chance of Precip.
Yesterday
High -- | Low -- °F
Precip. -- in
7:23 AM 5:03 PM
Waning Crescent, 20% visible
Pressure 30.26 in
Visibility 5.0 miles
Clouds Mostly Cloudy 5500 ft
Overcast 8000 ft
Dew Point 30 °F
Humidity 82%
Rainfall 0.04 in
Snow Depth Not available.
UV 1 out of 12
Pollen 3.60 out of 12
Air Quality Not available.
Flu Activity Not available.
METAR KXNA 171953Z 00000KT 5SM HZ BKN055 OVC080 02/M01 A3023 RMK AO2 SLP245 P0004 T00171011

More Conditions Fewer Conditions

Pressure 30.26 in
Visibility 5.0 miles
Clouds Mostly Cloudy 5500 ft
Overcast 8000 ft
Dew Point 30 °F
Humidity 82%
Rainfall 0.04 in
Snow Depth Not available.
UV 1 out of 12
Pollen 3.60 out of 12
Air Quality Not available.
Flu Activity Not available.
METAR KXNA 171953Z 00000KT 5SM HZ BKN055 OVC080 02/M01 A3023 RMK AO2 SLP245 P0004 T00171011

More Conditions Fewer Conditions

10-Day Weather Forecast

Almanac

Astronomy

Dec. 17, 2014 Rise Set
Actual Time
Civil Twilight
Nautical Twilight
Astronomical Twilight
Moon
Length of Visible Light
Length of Day
Tomorrow will be .
, % of the Moon is Illuminated

Today's Extremes

State Highs State Lows

Community

WunderPhotos

Upload Photos

1,778,803 photos uploaded!

WunderBlogs® & News

Nearby

Air Quality

  Air Quality AQ Index Pollutant
Not available.

Snow Depth

Station Depth Elevation

Earthquake Activity

City Distance Mag. Time & Date
Minimum magnitude displayed is 2.5.

Coastal Water Temperatures

Place Temperature

Nearby Weather Stations